createdAt,value
2022-09-12T00:04:16.021Z,53.31
2022-09-12T00:09:17.499Z,53.19
2022-09-12T00:14:19.059Z,54.11
2022-09-12T00:19:20.571Z,54.22
2022-09-12T00:24:22.233Z,53.85
2022-09-12T00:29:23.742Z,53.70
2022-09-12T00:34:25.259Z,54.63
2022-09-12T00:39:26.750Z,53.99
2022-09-12T00:44:28.320Z,53.86
2022-09-12T00:49:32.724Z,54.00
2022-09-12T00:54:43.964Z,54.28
2022-09-12T00:59:48.714Z,54.81
2022-09-12T01:04:50.209Z,54.55
2022-09-12T01:09:51.728Z,54.61
2022-09-12T01:14:53.207Z,55.28
2022-09-12T01:20:13.455Z,55.22
2022-09-12T01:25:33.925Z,55.25
2022-09-12T01:30:49.755Z,55.91
2022-09-12T01:36:04.540Z,55.83
2022-09-12T01:41:21.257Z,56.05
2022-09-12T01:46:33.184Z,55.44
2022-09-12T01:51:39.736Z,56.08
2022-09-12T01:56:41.595Z,55.96
2022-09-12T02:01:56.034Z,55.95
2022-09-12T02:07:03.735Z,56.18
2022-09-12T02:12:05.907Z,55.92
2022-09-12T02:17:12.220Z,56.12
2022-09-12T02:22:16.039Z,56.22
2022-09-12T02:27:37.897Z,56.39
2022-09-12T02:32:48.915Z,56.17
2022-09-12T02:38:00.962Z,56.52
2022-09-12T02:43:03.271Z,56.25
2022-09-12T02:48:08.414Z,56.65
2022-09-12T02:53:09.888Z,56.63
2022-09-12T02:58:13.638Z,56.70
2022-09-12T03:03:43.174Z,56.51
2022-09-12T03:08:57.315Z,56.43
2022-09-12T03:14:21.272Z,56.45
2022-09-12T03:19:45.166Z,56.79
2022-09-12T03:25:04.658Z,57.28
2022-09-12T03:30:06.729Z,56.71
2022-09-12T03:35:08.170Z,56.80
2022-09-12T03:40:10.488Z,56.58
2022-09-12T03:45:12.117Z,56.32
2022-09-12T03:50:13.594Z,56.58
2022-09-12T03:55:15.238Z,56.97
2022-09-12T04:00:19.838Z,56.30
2022-09-12T04:05:21.550Z,57.16
2022-09-12T04:10:23.042Z,57.87
2022-09-12T04:15:25.598Z,57.39
2022-09-12T04:20:27.070Z,57.05
2022-09-12T04:25:28.530Z,56.96
2022-09-12T04:30:30.118Z,56.89
2022-09-12T04:35:31.650Z,57.35
2022-09-12T04:40:33.324Z,57.65
2022-09-12T04:45:34.848Z,57.02
2022-09-12T04:50:36.348Z,57.06
2022-09-12T04:55:37.823Z,56.69
2022-09-12T05:00:39.291Z,56.85
2022-09-12T05:05:40.782Z,56.93
2022-09-12T05:10:42.785Z,57.50
2022-09-12T05:15:44.619Z,57.66
2022-09-12T05:20:46.087Z,56.97
2022-09-12T05:25:54.919Z,56.66
2022-09-12T05:31:13.130Z,56.37
2022-09-12T05:36:25.032Z,55.90
2022-09-12T05:41:29.365Z,55.73
2022-09-12T05:46:32.167Z,54.79
2022-09-12T05:51:35.212Z,54.63
2022-09-12T05:56:41.448Z,54.59
2022-09-12T06:01:43.055Z,54.85
2022-09-12T06:06:48.712Z,54.92
2022-09-12T06:11:50.215Z,54.13
2022-09-12T06:16:51.716Z,54.09
2022-09-12T06:21:53.500Z,54.60
2022-09-12T06:26:54.971Z,54.04
2022-09-12T06:31:56.434Z,53.00
2022-09-12T06:36:57.933Z,53.34
2022-09-12T06:41:59.398Z,53.01
2022-09-12T06:47:00.906Z,52.66
2022-09-12T06:52:02.730Z,52.58
2022-09-12T06:57:04.252Z,53.71
2022-09-12T07:02:06.140Z,52.92
2022-09-12T07:07:07.657Z,52.59
2022-09-12T07:12:09.211Z,52.79
2022-09-12T07:17:10.723Z,52.76
2022-09-12T07:22:12.284Z,53.02
2022-09-12T07:27:13.756Z,53.21
2022-09-12T07:32:15.226Z,52.58
2022-09-12T07:37:16.728Z,53.12
2022-09-12T07:42:18.240Z,53.92
2022-09-12T07:47:19.720Z,53.98
2022-09-12T07:52:21.240Z,54.54
2022-09-12T07:57:22.951Z,54.34
2022-09-12T08:02:24.453Z,54.40
2022-09-12T08:07:26.005Z,54.23
2022-09-12T08:12:27.984Z,54.67
2022-09-12T08:17:29.787Z,53.93
2022-09-12T08:22:31.461Z,54.07
2022-09-12T08:27:32.924Z,54.06
2022-09-12T08:32:34.631Z,54.14
2022-09-12T08:37:36.116Z,54.26
2022-09-12T08:42:43.485Z,54.10
2022-09-12T08:47:45.072Z,54.21
2022-09-12T08:52:53.694Z,53.64
2022-09-12T08:57:55.283Z,53.82
2022-09-12T09:03:02.636Z,53.22
2022-09-12T09:08:29.664Z,53.43
2022-09-12T09:14:19.102Z,53.54
2022-09-12T09:19:23.319Z,53.39
2022-09-12T09:24:38.647Z,53.71
2022-09-12T09:29:45.374Z,52.75
2022-09-12T09:34:46.876Z,52.43
2022-09-12T09:39:57.277Z,51.61
2022-09-12T09:45:00.079Z,52.08
2022-09-12T09:50:01.560Z,51.79
2022-09-12T09:55:03.096Z,51.44
2022-09-12T10:00:25.794Z,51.76
2022-09-12T10:05:28.549Z,51.00
2022-09-12T10:10:30.036Z,50.24
2022-09-12T10:15:31.860Z,49.96
2022-09-12T10:20:43.928Z,48.58
2022-09-12T10:25:48.920Z,48.31
2022-09-12T10:30:53.334Z,47.82
2022-09-12T10:35:55.117Z,48.86
2022-09-12T10:41:03.626Z,49.47
2022-09-12T10:46:21.579Z,49.33
2022-09-12T10:51:26.011Z,48.92
2022-09-12T10:56:39.295Z,47.72
2022-09-12T11:01:54.861Z,46.85
2022-09-12T11:07:06.467Z,46.67
2022-09-12T11:12:28.080Z,46.34
2022-09-12T11:17:53.515Z,46.00
2022-09-12T11:23:40.535Z,46.63
2022-09-12T11:29:00.880Z,46.15
2022-09-12T11:34:03.180Z,44.95
2022-09-12T11:39:15.813Z,45.05
2022-09-12T11:44:24.739Z,44.99
2022-09-12T11:49:36.084Z,44.20
2022-09-12T11:54:53.964Z,44.38
2022-09-12T12:00:07.918Z,44.08
2022-09-12T12:05:37.509Z,44.70
2022-09-12T12:10:39.812Z,45.46
2022-09-12T12:15:48.516Z,46.90
2022-09-12T12:20:50.526Z,46.17
2022-09-12T12:25:53.873Z,47.33
2022-09-12T12:30:55.277Z,47.43
2022-09-12T12:35:59.500Z,46.80
2022-09-12T12:41:18.984Z,48.02
2022-09-12T12:46:24.044Z,47.47
2022-09-12T12:51:53.807Z,47.08
2022-09-12T12:57:24.851Z,46.45
2022-09-12T13:02:31.695Z,46.97
2022-09-12T13:07:36.229Z,48.06
2022-09-12T13:12:43.906Z,47.82
2022-09-12T13:17:46.828Z,48.64
2022-09-12T13:22:49.886Z,50.56
2022-09-12T13:28:07.500Z,52.86
2022-09-12T13:33:18.495Z,53.49
2022-09-12T13:38:30.315Z,52.81
2022-09-12T13:43:37.940Z,53.16
2022-09-12T13:48:39.428Z,52.41
2022-09-12T13:53:43.911Z,52.32
2022-09-12T13:58:56.750Z,51.39
2022-09-12T14:04:16.395Z,50.81
2022-09-12T14:09:34.564Z,50.96
2022-09-12T14:14:37.375Z,50.83
2022-09-12T14:19:39.853Z,50.58
2022-09-12T14:24:41.330Z,50.79
2022-09-12T14:29:43.993Z,50.09
2022-09-12T14:35:21.927Z,50.18
2022-09-12T14:40:23.795Z,50.87
2022-09-12T14:45:34.534Z,50.88
2022-09-12T14:50:36.019Z,50.56
2022-09-12T14:55:44.578Z,50.83
2022-09-12T15:01:12.368Z,51.61
2022-09-12T15:06:28.436Z,51.47
2022-09-12T15:11:29.943Z,51.32
2022-09-12T15:16:31.407Z,51.28
2022-09-12T15:21:32.897Z,50.87
2022-09-12T15:26:34.386Z,50.17
2022-09-12T15:31:35.929Z,50.49
2022-09-12T15:36:37.456Z,49.55
2022-09-12T15:41:39.103Z,48.97
2022-09-12T15:46:40.888Z,49.18
2022-09-12T15:51:42.389Z,48.65
2022-09-12T15:56:43.943Z,48.07
2022-09-12T16:01:45.463Z,48.04
2022-09-12T16:06:47.041Z,48.14
2022-09-12T16:11:48.570Z,48.80
2022-09-12T16:16:59.484Z,47.63
2022-09-12T16:22:00.959Z,47.45
2022-09-12T16:27:02.437Z,47.84
2022-09-12T16:32:04.111Z,47.74
2022-09-12T16:37:05.735Z,48.38
2022-09-12T16:42:07.236Z,47.88
2022-09-12T16:47:08.725Z,47.48
2022-09-12T16:52:10.864Z,47.82
2022-09-12T16:57:12.331Z,47.72
2022-09-12T17:02:14.085Z,48.35
2022-09-12T17:07:15.583Z,49.13
2022-09-12T17:12:17.058Z,49.77
2022-09-12T17:17:18.538Z,49.47
2022-09-12T17:22:20.032Z,49.67
2022-09-12T17:27:21.593Z,50.98
2022-09-12T17:32:23.157Z,50.44
2022-09-12T17:37:24.658Z,50.12
2022-09-12T17:42:26.138Z,51.05
2022-09-12T17:47:27.638Z,50.35
2022-09-12T17:52:29.931Z,51.18
2022-09-12T17:57:31.391Z,50.70
2022-09-12T18:02:33.486Z,51.19
2022-09-12T18:07:38.921Z,51.79
2022-09-12T18:12:43.012Z,51.42
2022-09-12T18:17:44.490Z,52.02
2022-09-12T18:22:49.159Z,52.77
2022-09-12T18:27:50.628Z,52.10
2022-09-12T18:32:52.149Z,52.30
2022-09-12T18:37:53.808Z,51.71
2022-09-12T18:42:55.295Z,52.14
2022-09-12T18:47:56.772Z,51.81
2022-09-12T18:52:59.863Z,51.25
2022-09-12T18:58:01.581Z,51.50
2022-09-12T19:03:03.070Z,51.01
2022-09-12T19:08:04.832Z,50.82
2022-09-12T19:13:06.477Z,50.94
2022-09-12T19:18:09.485Z,50.69
2022-09-12T19:23:10.999Z,51.38
2022-09-12T19:28:12.480Z,51.18
2022-09-12T19:33:13.959Z,50.88
2022-09-12T19:38:15.719Z,51.06
2022-09-12T19:43:17.201Z,50.91
2022-09-12T19:48:19.516Z,50.77
2022-09-12T19:53:21.192Z,51.15
2022-09-12T19:58:22.660Z,51.41
2022-09-12T20:03:24.179Z,50.97
2022-09-12T20:08:25.675Z,50.88
2022-09-12T20:13:27.675Z,50.85
2022-09-12T20:18:29.188Z,51.79
2022-09-12T20:23:30.873Z,51.38
2022-09-12T20:28:32.510Z,51.88
2022-09-12T20:33:34.082Z,51.30
2022-09-12T20:38:35.936Z,50.87
2022-09-12T20:43:38.603Z,51.24
2022-09-12T20:48:40.093Z,51.99
2022-09-12T20:53:41.568Z,51.85
2022-09-12T20:58:44.424Z,52.27
2022-09-12T21:03:46.398Z,52.10
2022-09-12T21:08:48.077Z,52.39
2022-09-12T21:13:50.259Z,53.63
2022-09-12T21:18:56.125Z,54.96
2022-09-12T21:24:02.296Z,57.05
2022-09-12T21:29:03.786Z,59.67
2022-09-12T21:34:05.417Z,59.74
2022-09-12T21:39:06.924Z,58.90
2022-09-12T21:44:08.592Z,59.54
2022-09-12T21:49:10.067Z,59.18
2022-09-12T21:54:11.549Z,58.63
2022-09-12T21:59:13.033Z,58.95
2022-09-12T22:04:14.548Z,58.42
2022-09-12T22:09:16.913Z,59.30
2022-09-12T22:14:18.537Z,58.73
2022-09-12T22:19:20.132Z,57.56
2022-09-12T22:24:27.467Z,57.23
2022-09-12T22:29:28.954Z,56.86
2022-09-12T22:34:30.496Z,56.72
2022-09-12T22:39:32.155Z,56.30
2022-09-12T22:44:34.114Z,56.60
2022-09-12T22:49:35.617Z,56.38
2022-09-12T22:54:37.672Z,57.14
2022-09-12T22:59:39.035Z,57.49
2022-09-12T23:04:40.617Z,56.54
2022-09-12T23:09:42.105Z,57.31
2022-09-12T23:14:43.603Z,57.46
2022-09-12T23:19:45.364Z,57.75
2022-09-12T23:24:47.178Z,57.52
2022-09-12T23:29:52.792Z,57.71
2022-09-12T23:34:54.263Z,58.56
2022-09-12T23:39:55.801Z,58.48
2022-09-12T23:44:57.395Z,59.44
2022-09-12T23:49:58.911Z,59.82
2022-09-12T23:55:00.378Z,60.35
